Thunder radar more information blitzortung!


Löydät sääaseman tiedot myös:

European Weather Network

Finland Weather Exchange

Weather Underground

AWEKAS



Weather Underground säähistoriasivu

Päivittäin yhteenveto Heinäkuu 10, 2017 Yksiköt:  Englantilaiset    Metriset   Molemmat
« Edellinen Päivä
Seuraava Päivä »
Päivittäin Viikoittain Kuukausittain Vuosittain Mukautettu
  Korkea: Matala: Keskiarvo:
Lämpötila: TemperatureC °F 10.7 °F 16.8 °F
Kastepiste: DewpointC °F 9.1 °F 11.1 °F
Kosteus: Humidity % 46 % 71 %
Tuulen nopeus: WindSpeedKMH mph 0.0 mph 4.1 mph
Tuulenpuuska: WindSpeedGustKMH mph - -
Tuuli:- - SSW
Ilmanpaine: PressurehPa in 1007.7 in -
Sade: 0.0 in    
Historical Graphs
 
 
Taulukkotiedot Heinäkuu 10, 2017
Aika Lämpötila Kastepiste Ilmanpaine Tuuli Tuulen nopeus Tuulenpuuska Kosteus Sademäärä (tunneittain)
TemperatureC °F DewpointC °F PressurehPa in Calm     Humidity % HourlyPrecipMM in
00:00 13.4 °F 11.8 °F 1008.7 in Calm     90 % 0.0 in
00:15 13.3 °F 11.5 °F 1008.7 in Calm     89 % 0.0 in
00:30 13.2 °F 11.6 °F 1008.7 in Calm     90 % 0.0 in
00:45 13.1 °F 11.5 °F 1008.7 in Calm     90 % 0.0 in
01:00 12.9 °F 11.5 °F 1008.7 in Calm     91 % 0.0 in
01:15 12.7 °F 11.2 °F 1008.7 in Calm     91 % 0.0 in
01:30 12.5 °F 11.1 °F 1008.7 in Calm     91 % 0.0 in
01:45 12.2 °F 10.8 °F 1008.7 in Calm     91 % 0.0 in
02:00 11.9 °F 10.7 °F 1008.7 in Calm     92 % 0.0 in
02:15 11.8 °F 10.7 °F 1008.7 in Calm     93 % 0.0 in
02:30 11.6 °F 10.4 °F 1008.7 in Calm     92 % 0.0 in
02:45 11.2 °F 9.9 °F 1008.7 in Calm     92 % 0.0 in
03:00 10.9 °F 10.0 °F 1008.7 in Calm     94 % 0.0 in
03:15 10.8 °F 9.9 °F 1008.7 in Calm     94 % 0.0 in
03:30 10.7 °F 9.7 °F 1008.7 in Calm     94 % 0.0 in
03:45 10.7 °F 9.7 °F 1008.7 in Calm     94 % 0.0 in
04:00 10.7 °F 9.7 °F 1008.4 in Calm     94 % 0.0 in
04:15 10.7 °F 9.7 °F 1008.7 in Calm     94 % 0.0 in
04:30 10.7 °F 9.9 °F 1008.4 in Calm     95 % 0.0 in
04:45 10.8 °F 10.1 °F 1008.4 in Calm     95 % 0.0 in
05:00 10.8 °F 10.1 °F 1008.4 in Calm     95 % 0.0 in
05:15 10.9 °F 10.2 °F 1008.4 in Calm     95 % 0.0 in
05:30 11.1 °F 10.3 °F 1008.4 in Calm     95 % 0.0 in
05:45 11.3 °F 10.5 °F 1008.4 in Calm     95 % 0.0 in
06:00 11.8 °F 10.9 °F 1008.0 in Calm     94 % 0.0 in
06:15 12.3 °F 11.1 °F 1008.4 in Calm   1.6 mph 92 % 0.0 in
06:30 12.5 °F 10.9 °F 1008.4 in Calm     90 % 0.0 in
06:45 12.6 °F 10.8 °F 1008.4 in Calm   1.6 mph 89 % 0.0 in
07:00 12.8 °F 10.9 °F 1008.4 in Calm   6.4 mph 88 % 0.0 in
07:15 13.4 °F 11.3 °F 1008.0 in South 1.6 mph 8.0 mph 87 % 0.0 in
07:30 14.3 °F 11.8 °F 1008.0 in South 3.2 mph 11.3 mph 85 % 0.0 in
07:45 15.2 °F 12.4 °F 1008.0 in Calm   8.0 mph 83 % 0.0 in
08:00 15.7 °F 12.7 °F 1008.0 in South 1.6 mph 11.3 mph 82 % 0.0 in
08:15 16.0 °F 12.9 °F 1008.0 in South 3.2 mph 11.3 mph 82 % 0.0 in
08:30 16.2 °F 13.0 °F 1008.0 in SSW 1.6 mph 9.7 mph 81 % 0.0 in
08:45 16.6 °F 13.1 °F 1008.0 in SSW 3.2 mph 8.0 mph 80 % 0.0 in
09:00 16.7 °F 13.1 °F 1008.0 in South 1.6 mph 9.7 mph 79 % 0.0 in
09:15 17.3 °F 13.2 °F 1008.0 in South 1.6 mph 9.7 mph 77 % 0.0 in
09:30 17.4 °F 13.1 °F 1007.7 in South 6.4 mph 14.5 mph 76 % 0.0 in
09:45 17.8 °F 13.1 °F 1007.7 in South 4.8 mph 16.1 mph 74 % 0.0 in
10:00 18.1 °F 13.3 °F 1007.7 in South 4.8 mph 17.7 mph 74 % 0.0 in
10:15 18.6 °F 13.7 °F 1007.7 in SSE 4.8 mph 17.7 mph 73 % 0.0 in
10:30 19.0 °F 13.8 °F 1007.7 in South 4.8 mph 17.7 mph 72 % 0.0 in
10:45 18.7 °F 13.8 °F 1007.7 in South 4.8 mph 12.9 mph 73 % 0.0 in
11:00 18.6 °F 14.1 °F 1008.0 in SSW 4.8 mph 11.3 mph 75 % 0.0 in
11:15 18.6 °F 14.2 °F 1008.0 in SSW 8.0 mph 19.3 mph 76 % 0.0 in
11:30 18.9 °F 14.2 °F 1008.0 in SSW 8.0 mph 17.7 mph 74 % 0.0 in
11:45 19.4 °F 14.3 °F 1008.0 in SSW 4.8 mph 22.5 mph 72 % 0.0 in
12:00 19.6 °F 14.2 °F 1008.0 in SSW 8.0 mph 17.7 mph 71 % 0.0 in
12:15 19.6 °F 14.2 °F 1008.0 in SSW 9.7 mph 19.3 mph 71 % 0.0 in
12:30 20.1 °F 13.7 °F 1008.0 in SSW 8.0 mph 25.7 mph 67 % 0.0 in
12:45 20.7 °F 13.6 °F 1007.7 in South 9.7 mph 24.1 mph 64 % 0.0 in
13:00 20.7 °F 12.6 °F 1008.0 in SSW 9.7 mph 27.4 mph 60 % 0.0 in
13:15 20.4 °F 12.4 °F 1007.7 in SSW 11.3 mph 29.0 mph 60 % 0.0 in
13:30 20.8 °F 11.5 °F 1007.7 in SSW 11.3 mph 27.4 mph 55 % 0.0 in
13:45 21.3 °F 11.9 °F 1007.7 in SSW 9.7 mph 27.4 mph 55 % 0.0 in
14:00 21.4 °F 12.0 °F 1007.7 in SSW 11.3 mph 24.1 mph 55 % 0.0 in
14:15 21.4 °F 11.5 °F 1007.7 in SSW 12.9 mph 29.0 mph 53 % 0.0 in
14:45 21.7 °F 11.7 °F 1007.7 in SSW 9.7 mph 22.5 mph 53 % 0.0 in
15:00 21.7 °F 11.7 °F 1007.7 in SSW 11.3 mph 27.4 mph 53 % 0.0 in
15:15 22.2 °F 12.1 °F 1007.7 in SSW 9.7 mph 27.4 mph 53 % 0.0 in
15:30 22.1 °F 11.1 °F 1007.7 in SSW 9.7 mph 19.3 mph 50 % 0.0 in
15:45 21.9 °F 10.7 °F 1007.7 in SSW 11.3 mph 25.7 mph 49 % 0.0 in
16:00 22.1 °F 11.1 °F 1007.7 in SSW 11.3 mph 24.1 mph 50 % 0.0 in
16:15 22.1 °F 10.8 °F 1007.7 in SSW 9.7 mph 25.7 mph 49 % 0.0 in
16:30 22.1 °F 10.9 °F 1007.7 in SSW 9.7 mph 25.7 mph 49 % 0.0 in
16:45 22.3 °F 11.0 °F 1007.7 in SSW 6.4 mph 19.3 mph 49 % 0.0 in
17:00 22.2 °F 10.9 °F 1007.7 in SSW 11.3 mph 24.1 mph 49 % 0.0 in
17:15 21.9 °F 11.0 °F 1007.7 in SSW 11.3 mph 20.9 mph 50 % 0.0 in
17:30 22.0 °F 11.1 °F 1007.7 in SSW 8.0 mph 27.4 mph 50 % 0.0 in
17:45 22.2 °F 11.0 °F 1007.7 in South 8.0 mph 20.9 mph 49 % 0.0 in
18:00 21.7 °F 10.2 °F 1007.7 in SSW 9.7 mph 27.4 mph 48 % 0.0 in
18:15 21.6 °F 10.4 °F 1007.7 in SSW 9.7 mph 19.3 mph 49 % 0.0 in
18:30 21.6 °F 10.7 °F 1007.7 in SSW 8.0 mph 20.9 mph 50 % 0.0 in
18:45 21.4 °F 10.6 °F 1007.7 in SSW 8.0 mph 22.5 mph 50 % 0.0 in
19:00 21.4 °F 10.9 °F 1008.0 in SSW 8.0 mph 24.1 mph 51 % 0.0 in
19:15 21.2 °F 9.1 °F 1008.0 in SSW 12.9 mph 32.2 mph 46 % 0.0 in
19:30 21.1 °F 9.6 °F 1008.0 in SSW 8.0 mph 24.1 mph 48 % 0.0 in
19:45 20.5 °F 10.0 °F 1008.0 in SSW 6.4 mph 17.7 mph 51 % 0.0 in
20:00 20.2 °F 9.8 °F 1008.4 in SSW 4.8 mph 16.1 mph 51 % 0.0 in
20:15 19.7 °F 9.8 °F 1008.4 in SSW 4.8 mph 12.9 mph 53 % 0.0 in
20:30 19.2 °F 9.6 °F 1008.4 in SW 3.2 mph 9.7 mph 54 % 0.0 in
20:45 18.8 °F 9.5 °F 1008.4 in SW 1.6 mph 8.0 mph 55 % 0.0 in
21:00 18.4 °F 10.0 °F 1008.4 in Calm     58 % 0.0 in
21:15 18.2 °F 10.5 °F 1008.4 in Calm   1.6 mph 61 % 0.0 in
21:30 18.1 °F 9.7 °F 1008.4 in SSW 1.6 mph 8.0 mph 58 % 0.0 in
21:45 17.9 °F 10.1 °F 1008.4 in Calm   1.6 mph 60 % 0.0 in
22:00 17.7 °F 9.8 °F 1008.7 in Calm   3.2 mph 60 % 0.0 in
22:15 17.3 °F 9.5 °F 1008.4 in Calm   6.4 mph 60 % 0.0 in
22:30 17.1 °F 9.5 °F 1008.7 in Calm   4.8 mph 61 % 0.0 in
22:45 16.6 °F 9.7 °F 1008.7 in Calm     64 % 0.0 in
23:00 15.9 °F 10.2 °F 1008.7 in Calm     69 % 0.0 in
23:15 15.1 °F 10.0 °F 1008.7 in Calm     72 % 0.0 in
23:30 14.2 °F 9.8 °F 1009.0 in Calm     75 % 0.0 in
23:45 13.6 °F 10.0 °F 1008.7 in Calm     79 % 0.0 in
Esan sääasema
Terveisin Weather Underground - 2.75 mb

Alkuperäinen skripti  Jim McMurry - jmcmurry@mwt.net Sovitettu myös templatelle  Wim van der Kuil - Leuven-Template.eu

Laitteet joita käytämme:

Sääasema
Davis VP2

Sääasemaohjelma
Cumulus

Sääaseman tietokone
Asus EeePC

Palveluntarjoaja
Suncomet

Davis VP2

Cumulus

Asus EeePC

Suncomet